sensor_id;sensor_type;location;lat;lon;timestamp;pressure;altitude;pressure_sealevel;temperature;humidity
35806;BME280;21925;44.608;11.580;2023-05-25T00:00:24;101426.72;;;22.98;100.00
35806;BME280;21925;44.608;11.580;2023-05-25T00:02:50;101431.97;;;22.92;100.00
35806;BME280;21925;44.608;11.580;2023-05-25T00:05:19;101440.09;;;22.76;100.00
35806;BME280;21925;44.608;11.580;2023-05-25T00:07:45;101426.59;;;22.68;100.00
35806;BME280;21925;44.608;11.580;2023-05-25T00:10:11;101440.63;;;23.08;100.00
35806;BME280;21925;44.608;11.580;2023-05-25T00:12:37;101433.34;;;23.18;100.00
35806;BME280;21925;44.608;11.580;2023-05-25T00:15:05;101456.28;;;23.39;100.00
35806;BME280;21925;44.608;11.580;2023-05-25T00:17:31;101443.72;;;23.17;100.00
35806;BME280;21925;44.608;11.580;2023-05-25T00:19:58;101454.06;;;23.24;100.00
35806;BME280;21925;44.608;11.580;2023-05-25T00:22:36;101457.19;;;23.33;100.00
35806;BME280;21925;44.608;11.580;2023-05-25T00:25:05;101449.16;;;22.91;100.00
35806;BME280;21925;44.608;11.580;2023-05-25T00:27:31;101443.84;;;22.56;100.00
35806;BME280;21925;44.608;11.580;2023-05-25T00:29:57;101441.03;;;22.59;100.00
35806;BME280;21925;44.608;11.580;2023-05-25T00:32:23;101448.28;;;22.53;100.00
35806;BME280;21925;44.608;11.580;2023-05-25T00:34:48;101440.25;;;22.59;100.00
35806;BME280;21925;44.608;11.580;2023-05-25T00:37:15;101454.00;;;22.36;100.00
35806;BME280;21925;44.608;11.580;2023-05-25T00:39:41;101453.22;;;22.25;100.00
35806;BME280;21925;44.608;11.580;2023-05-25T00:42:07;101454.47;;;22.17;100.00
35806;BME280;21925;44.608;11.580;2023-05-25T00:44:33;101445.91;;;21.73;100.00
35806;BME280;21925;44.608;11.580;2023-05-25T00:46:59;101441.59;;;21.59;100.00
35806;BME280;21925;44.608;11.580;2023-05-25T00:49:30;101464.75;;;22.38;100.00
35806;BME280;21925;44.608;11.580;2023-05-25T00:51:56;101463.50;;;22.46;100.00
35806;BME280;21925;44.608;11.580;2023-05-25T00:54:22;101461.47;;;22.49;100.00
35806;BME280;21925;44.608;11.580;2023-05-25T00:56:59;101475.91;;;22.41;100.00
35806;BME280;21925;44.608;11.580;2023-05-25T00:59:43;101472.78;;;22.32;100.00
35806;BME280;21925;44.608;11.580;2023-05-25T01:02:12;101474.00;;;22.24;100.00
35806;BME280;21925;44.608;11.580;2023-05-25T01:04:44;101470.28;;;22.45;100.00
35806;BME280;21925;44.608;11.580;2023-05-25T01:07:17;101476.59;;;22.59;100.00
35806;BME280;21925;44.608;11.580;2023-05-25T01:09:44;101479.09;;;22.43;100.00
35806;BME280;21925;44.608;11.580;2023-05-25T01:12:13;101468.78;;;22.33;100.00
35806;BME280;21925;44.608;11.580;2023-05-25T01:14:39;101473.22;;;22.20;100.00
35806;BME280;21925;44.608;11.580;2023-05-25T01:17:05;101473.13;;;22.41;100.00
35806;BME280;21925;44.608;11.580;2023-05-25T01:19:32;101488.91;;;22.65;100.00
35806;BME280;21925;44.608;11.580;2023-05-25T01:22:06;101485.03;;;22.52;100.00
35806;BME280;21925;44.608;11.580;2023-05-25T01:24:37;101474.06;;;22.75;100.00
35806;BME280;21925;44.608;11.580;2023-05-25T01:27:25;101476.16;;;22.60;100.00
35806;BME280;21925;44.608;11.580;2023-05-25T01:29:58;101476.00;;;22.85;100.00
35806;BME280;21925;44.608;11.580;2023-05-25T01:32:23;101485.31;;;22.68;100.00
35806;BME280;21925;44.608;11.580;2023-05-25T01:34:51;101482.19;;;23.03;100.00
35806;BME280;21925;44.608;11.580;2023-05-25T01:37:18;101487.69;;;23.20;100.00
35806;BME280;21925;44.608;11.580;2023-05-25T01:39:44;101483.94;;;22.90;100.00
35806;BME280;21925;44.608;11.580;2023-05-25T01:42:10;101470.28;;;22.48;100.00
35806;BME280;21925;44.608;11.580;2023-05-25T01:44:37;101490.47;;;22.73;100.00
35806;BME280;21925;44.608;11.580;2023-05-25T01:47:15;101497.88;;;22.93;100.00
35806;BME280;21925;44.608;11.580;2023-05-25T01:53:09;101490.44;;;22.76;100.00
35806;BME280;21925;44.608;11.580;2023-05-25T01:55:45;101498.72;;;22.36;100.00
35806;BME280;21925;44.608;11.580;2023-05-25T01:58:14;101488.25;;;22.47;100.00
35806;BME280;21925;44.608;11.580;2023-05-25T02:00:41;101506.78;;;22.78;100.00
35806;BME280;21925;44.608;11.580;2023-05-25T02:03:08;101488.00;;;22.82;100.00
35806;BME280;21925;44.608;11.580;2023-05-25T02:05:34;101499.66;;;22.70;100.00
35806;BME280;21925;44.608;11.580;2023-05-25T02:08:00;101503.47;;;22.39;100.00
35806;BME280;21925;44.608;11.580;2023-05-25T02:10:30;101496.41;;;22.10;100.00
35806;BME280;21925;44.608;11.580;2023-05-25T02:12:56;101505.31;;;21.84;100.00
35806;BME280;21925;44.608;11.580;2023-05-25T02:15:22;101498.72;;;22.29;100.00
35806;BME280;21925;44.608;11.580;2023-05-25T02:17:47;101510.59;;;22.47;100.00
35806;BME280;21925;44.608;11.580;2023-05-25T02:20:13;101516.28;;;22.26;100.00
35806;BME280;21925;44.608;11.580;2023-05-25T02:22:39;101520.03;;;21.95;100.00
35806;BME280;21925;44.608;11.580;2023-05-25T02:25:06;101512.47;;;21.89;100.00
35806;BME280;21925;44.608;11.580;2023-05-25T02:27:34;101502.88;;;21.97;100.00
35806;BME280;21925;44.608;11.580;2023-05-25T02:30:00;101521.28;;;21.73;100.00
35806;BME280;21925;44.608;11.580;2023-05-25T02:32:27;101520.78;;;22.06;100.00
35806;BME280;21925;44.608;11.580;2023-05-25T02:34:54;101518.50;;;21.80;100.00
35806;BME280;21925;44.608;11.580;2023-05-25T02:37:20;101506.84;;;21.96;100.00
35806;BME280;21925;44.608;11.580;2023-05-25T02:39:46;101520.41;;;21.97;100.00
35806;BME280;21925;44.608;11.580;2023-05-25T02:42:12;101528.09;;;21.69;100.00
35806;BME280;21925;44.608;11.580;2023-05-25T02:44:38;101517.78;;;21.56;100.00
35806;BME280;21925;44.608;11.580;2023-05-25T02:47:04;101520.16;;;21.40;100.00
35806;BME280;21925;44.608;11.580;2023-05-25T02:49:31;101525.69;;;21.67;100.00
35806;BME280;21925;44.608;11.580;2023-05-25T02:51:58;101520.41;;;21.97;100.00
35806;BME280;21925;44.608;11.580;2023-05-25T02:54:24;101519.59;;;22.00;100.00
35806;BME280;21925;44.608;11.580;2023-05-25T02:56:50;101517.56;;;22.15;100.00
35806;BME280;21925;44.608;11.580;2023-05-25T02:59:17;101537.16;;;22.08;100.00
35806;BME280;21925;44.608;11.580;2023-05-25T03:01:44;101529.59;;;22.01;100.00
35806;BME280;21925;44.608;11.580;2023-05-25T03:04:10;101525.56;;;22.09;100.00
35806;BME280;21925;44.608;11.580;2023-05-25T03:06:36;101544.31;;;22.12;100.00
35806;BME280;21925;44.608;11.580;2023-05-25T03:09:12;101538.91;;;21.60;100.00
35806;BME280;21925;44.608;11.580;2023-05-25T03:11:39;101543.25;;;21.68;100.00
35806;BME280;21925;44.608;11.580;2023-05-25T03:14:05;101534.47;;;21.49;100.00
35806;BME280;21925;44.608;11.580;2023-05-25T03:16:32;101552.78;;;21.84;100.00
35806;BME280;21925;44.608;11.580;2023-05-25T03:19:02;101555.88;;;22.07;100.00
35806;BME280;21925;44.608;11.580;2023-05-25T03:21:31;101548.25;;;22.18;100.00
35806;BME280;21925;44.608;11.580;2023-05-25T03:23:57;101561.38;;;22.35;100.00
35806;BME280;21925;44.608;11.580;2023-05-25T03:26:24;101559.44;;;22.18;100.00
35806;BME280;21925;44.608;11.580;2023-05-25T03:28:51;101572.94;;;22.27;100.00
35806;BME280;21925;44.608;11.580;2023-05-25T03:31:17;101576.16;;;22.32;100.00
35806;BME280;21925;44.608;11.580;2023-05-25T03:33:43;101553.03;;;22.32;100.00
35806;BME280;21925;44.608;11.580;2023-05-25T03:36:10;101561.78;;;22.37;100.00
35806;BME280;21925;44.608;11.580;2023-05-25T03:38:37;101570.56;;;22.25;100.00
35806;BME280;21925;44.608;11.580;2023-05-25T03:41:04;101574.28;;;21.98;100.00
35806;BME280;21925;44.608;11.580;2023-05-25T03:43:30;101577.88;;;21.91;100.00
35806;BME280;21925;44.608;11.580;2023-05-25T03:45:56;101570.78;;;21.63;100.00
35806;BME280;21925;44.608;11.580;2023-05-25T03:48:22;101571.53;;;21.77;100.00
35806;BME280;21925;44.608;11.580;2023-05-25T03:50:49;101570.78;;;21.52;100.00
35806;BME280;21925;44.608;11.580;2023-05-25T03:53:16;101579.56;;;21.30;100.00
35806;BME280;21925;44.608;11.580;2023-05-25T03:55:43;101588.31;;;21.46;100.00
35806;BME280;21925;44.608;11.580;2023-05-25T03:58:11;101599.09;;;21.37;100.00
35806;BME280;21925;44.608;11.580;2023-05-25T04:00:38;101606.66;;;21.40;100.00
35806;BME280;21925;44.608;11.580;2023-05-25T04:03:04;101602.66;;;21.41;100.00
35806;BME280;21925;44.608;11.580;2023-05-25T04:05:31;101595.47;;;21.26;100.00
35806;BME280;21925;44.608;11.580;2023-05-25T04:07:57;101606.63;;;20.91;100.00
35806;BME280;21925;44.608;11.580;2023-05-25T04:10:23;101617.78;;;21.01;100.00
35806;BME280;21925;44.608;11.580;2023-05-25T04:12:49;101615.00;;;21.05;100.00
35806;BME280;21925;44.608;11.580;2023-05-25T04:15:16;101624.16;;;21.05;100.00
35806;BME280;21925;44.608;11.580;2023-05-25T04:18:11;101629.31;;;20.93;100.00
35806;BME280;21925;44.608;11.580;2023-05-25T04:20:37;101632.38;;;20.64;100.00
35806;BME280;21925;44.608;11.580;2023-05-25T04:23:05;101619.75;;;20.87;100.00
35806;BME280;21925;44.608;11.580;2023-05-25T04:25:32;101636.53;;;21.08;100.00
35806;BME280;21925;44.608;11.580;2023-05-25T04:27:58;101627.38;;;21.32;100.00
35806;BME280;21925;44.608;11.580;2023-05-25T04:30:47;101626.97;;;21.37;100.00
35806;BME280;21925;44.608;11.580;2023-05-25T04:33:39;101642.13;;;21.43;100.00
35806;BME280;21925;44.608;11.580;2023-05-25T04:36:15;101632.16;;;21.10;100.00
35806;BME280;21925;44.608;11.580;2023-05-25T04:38:42;101630.19;;;21.35;100.00
35806;BME280;21925;44.608;11.580;2023-05-25T04:41:14;101642.13;;;21.22;100.00
35806;BME280;21925;44.608;11.580;2023-05-25T04:43:43;101655.28;;;21.42;100.00
35806;BME280;21925;44.608;11.580;2023-05-25T04:46:11;101651.28;;;21.26;100.00
35806;BME280;21925;44.608;11.580;2023-05-25T04:48:39;101660.84;;;21.25;100.00
35806;BME280;21925;44.608;11.580;2023-05-25T04:51:05;101656.06;;;21.36;100.00
35806;BME280;21925;44.608;11.580;2023-05-25T04:53:32;101666.03;;;21.26;100.00
35806;BME280;21925;44.608;11.580;2023-05-25T04:56:01;101673.22;;;21.31;100.00
35806;BME280;21925;44.608;11.580;2023-05-25T04:58:27;101676.78;;;21.21;100.00
35806;BME280;21925;44.608;11.580;2023-05-25T05:00:55;101684.38;;;21.52;100.00
35806;BME280;21925;44.608;11.580;2023-05-25T05:03:22;101683.63;;;21.75;100.00
35806;BME280;21925;44.608;11.580;2023-05-25T05:05:49;101677.63;;;21.84;100.00
35806;BME280;21925;44.608;11.580;2023-05-25T05:08:21;101673.63;;;21.95;100.00
35806;BME280;21925;44.608;11.580;2023-05-25T05:10:48;101693.91;;;22.34;100.00
35806;BME280;21925;44.608;11.580;2023-05-25T05:13:15;101693.47;;;22.43;100.00
35806;BME280;21925;44.608;11.580;2023-05-25T05:15:42;101695.13;;;22.33;100.00
35806;BME280;21925;44.608;11.580;2023-05-25T05:18:08;101705.94;;;21.96;100.00
35806;BME280;21925;44.608;11.580;2023-05-25T05:20:35;101712.69;;;21.47;100.00
35806;BME280;21925;44.608;11.580;2023-05-25T05:23:01;101710.28;;;21.42;100.00
35806;BME280;21925;44.608;11.580;2023-05-25T05:25:27;101727.09;;;21.56;100.00
35806;BME280;21925;44.608;11.580;2023-05-25T05:27:53;101723.50;;;21.72;100.00
35806;BME280;21925;44.608;11.580;2023-05-25T05:30:25;101708.72;;;21.44;100.00
35806;BME280;21925;44.608;11.580;2023-05-25T05:32:51;101735.47;;;21.69;100.00
35806;BME280;21925;44.608;11.580;2023-05-25T05:35:19;101739.84;;;21.91;100.00
35806;BME280;21925;44.608;11.580;2023-05-25T05:37:46;101733.47;;;21.98;100.00
35806;BME280;21925;44.608;11.580;2023-05-25T05:40:13;101741.03;;;22.08;100.00
35806;BME280;21925;44.608;11.580;2023-05-25T05:42:40;101726.69;;;22.02;100.00
35806;BME280;21925;44.608;11.580;2023-05-25T05:45:08;101738.63;;;22.27;100.00
35806;BME280;21925;44.608;11.580;2023-05-25T05:47:34;101734.63;;;22.35;100.00
35806;BME280;21925;44.608;11.580;2023-05-25T05:50:00;101741.00;;;22.43;100.00
35806;BME280;21925;44.608;11.580;2023-05-25T05:52:28;101721.38;;;22.67;100.00
35806;BME280;21925;44.608;11.580;2023-05-25T05:54:54;101745.28;;;22.82;100.00
35806;BME280;21925;44.608;11.580;2023-05-25T05:57:20;101730.03;;;22.93;100.00
35806;BME280;21925;44.608;11.580;2023-05-25T05:59:46;101750.00;;;22.99;100.00
35806;BME280;21925;44.608;11.580;2023-05-25T06:02:12;101731.66;;;22.91;100.00
35806;BME280;21925;44.608;11.580;2023-05-25T06:04:39;101756.50;;;22.68;100.00
35806;BME280;21925;44.608;11.580;2023-05-25T06:07:06;101746.22;;;22.41;100.00
35806;BME280;21925;44.608;11.580;2023-05-25T06:09:33;101766.53;;;22.55;100.00
35806;BME280;21925;44.608;11.580;2023-05-25T06:11:59;101752.94;;;22.57;100.00
35806;BME280;21925;44.608;11.580;2023-05-25T06:14:26;101759.28;;;22.71;100.00
35806;BME280;21925;44.608;11.580;2023-05-25T06:16:52;101765.63;;;22.86;100.00
35806;BME280;21925;44.608;11.580;2023-05-25T06:19:18;101763.69;;;22.69;100.00
35806;BME280;21925;44.608;11.580;2023-05-25T06:21:44;101763.69;;;22.69;100.00
35806;BME280;21925;44.608;11.580;2023-05-25T06:24:10;101767.25;;;22.80;100.00
35806;BME280;21925;44.608;11.580;2023-05-25T06:26:36;101764.50;;;22.66;100.00
35806;BME280;21925;44.608;11.580;2023-05-25T06:29:02;101760.53;;;22.56;100.00
35806;BME280;21925;44.608;11.580;2023-05-25T06:31:28;101760.19;;;22.41;100.00
35806;BME280;21925;44.608;11.580;2023-05-25T06:33:54;101773.28;;;22.68;100.00
35806;BME280;21925;44.608;11.580;2023-05-25T06:36:21;101766.41;;;22.90;100.00
35806;BME280;21925;44.608;11.580;2023-05-25T06:38:47;101756.38;;;22.96;100.00
35806;BME280;21925;44.608;11.580;2023-05-25T06:41:12;101773.59;;;22.94;100.00
35806;BME280;21925;44.608;11.580;2023-05-25T06:43:40;101770.69;;;23.26;100.00
35806;BME280;21925;44.608;11.580;2023-05-25T06:46:25;101779.69;;;23.57;100.00
35806;BME280;21925;44.608;11.580;2023-05-25T06:48:51;101790.50;;;23.52;100.00
35806;BME280;21925;44.608;11.580;2023-05-25T06:51:19;101790.59;;;23.34;100.00
35806;BME280;21925;44.608;11.580;2023-05-25T06:53:45;101788.22;;;23.33;100.00
35806;BME280;21925;44.608;11.580;2023-05-25T06:56:11;101796.94;;;23.45;100.00
35806;BME280;21925;44.608;11.580;2023-05-25T06:58:36;101800.59;;;23.35;100.00
35806;BME280;21925;44.608;11.580;2023-05-25T07:01:02;101789.09;;;23.16;100.00
35806;BME280;21925;44.608;11.580;2023-05-25T07:03:28;101776.19;;;23.39;100.00
35806;BME280;21925;44.608;11.580;2023-05-25T07:05:54;101789.78;;;23.37;100.00
35806;BME280;21925;44.608;11.580;2023-05-25T07:08:20;101792.84;;;23.60;100.00
35806;BME280;21925;44.608;11.580;2023-05-25T07:10:46;101785.19;;;23.71;100.00
35806;BME280;21925;44.608;11.580;2023-05-25T07:13:12;101814.53;;;24.11;100.00
35806;BME280;21925;44.608;11.580;2023-05-25T07:15:38;101795.03;;;23.93;100.00
35806;BME280;21925;44.608;11.580;2023-05-25T07:18:04;101804.50;;;24.13;100.00
35806;BME280;21925;44.608;11.580;2023-05-25T07:20:29;101813.91;;;24.33;100.00
35806;BME280;21925;44.608;11.580;2023-05-25T07:22:55;101813.53;;;24.31;100.00
35806;BME280;21925;44.608;11.580;2023-05-25T07:25:21;101803.03;;;24.38;100.00
35806;BME280;21925;44.608;11.580;2023-05-25T07:27:48;101779.19;;;24.20;100.00
35806;BME280;21925;44.608;11.580;2023-05-25T07:30:15;101808.84;;;24.61;100.00
35806;BME280;21925;44.608;11.580;2023-05-25T07:32:41;101817.47;;;24.77;98.05
35806;BME280;21925;44.608;11.580;2023-05-25T07:35:07;101811.47;;;24.38;100.00
35806;BME280;21925;44.608;11.580;2023-05-25T07:37:33;101764.28;;;24.30;99.58
35806;BME280;21925;44.608;11.580;2023-05-25T07:39:59;101832.00;;;25.05;96.69
35806;BME280;21925;44.608;11.580;2023-05-25T07:42:25;101821.47;;;25.46;95.90
35806;BME280;21925;44.608;11.580;2023-05-25T07:44:57;101797.66;;;25.54;94.21
35806;BME280;21925;44.608;11.580;2023-05-25T07:47:24;101822.38;;;25.36;93.47
35806;BME280;21925;44.608;11.580;2023-05-25T07:49:50;101840.38;;;25.09;94.17
35806;BME280;21925;44.608;11.580;2023-05-25T07:52:16;101821.66;;;25.32;93.17
35806;BME280;21925;44.608;11.580;2023-05-25T07:54:44;101769.03;;;25.06;93.42
35806;BME280;21925;44.608;11.580;2023-05-25T07:57:10;101841.34;;;25.88;91.51
35806;BME280;21925;44.608;11.580;2023-05-25T07:59:36;101835.16;;;25.71;89.76
35806;BME280;21925;44.608;11.580;2023-05-25T08:02:03;101841.50;;;25.75;87.05
35806;BME280;21925;44.608;11.580;2023-05-25T08:04:32;101821.22;;;25.64;87.65
35806;BME280;21925;44.608;11.580;2023-05-25T08:07:00;101843.84;;;26.55;85.55
35806;BME280;21925;44.608;11.580;2023-05-25T08:09:26;101770.63;;;26.59;83.78
35806;BME280;21925;44.608;11.580;2023-05-25T08:11:52;101842.28;;;26.96;83.69
35806;BME280;21925;44.608;11.580;2023-05-25T08:14:18;101845.50;;;26.53;77.80
35806;BME280;21925;44.608;11.580;2023-05-25T08:16:51;101815.19;;;26.41;75.90
35806;BME280;21925;44.608;11.580;2023-05-25T08:19:17;101823.78;;;26.30;75.38
35806;BME280;21925;44.608;11.580;2023-05-25T08:21:44;101857.50;;;26.57;75.64
35806;BME280;21925;44.608;11.580;2023-05-25T08:24:10;101858.94;;;26.87;73.85
35806;BME280;21925;44.608;11.580;2023-05-25T08:26:37;101838.41;;;26.87;73.63
35806;BME280;21925;44.608;11.580;2023-05-25T08:29:05;101848.66;;;27.20;74.84
35806;BME280;21925;44.608;11.580;2023-05-25T08:31:34;101802.78;;;26.80;72.26
35806;BME280;21925;44.608;11.580;2023-05-25T08:34:01;101850.75;;;27.16;74.63
35806;BME280;21925;44.608;11.580;2023-05-25T08:36:28;101834.75;;;26.90;73.13
35806;BME280;21925;44.608;11.580;2023-05-25T08:38:57;101807.22;;;26.78;76.11
35806;BME280;21925;44.608;11.580;2023-05-25T08:41:23;101872.75;;;27.01;74.80
35806;BME280;21925;44.608;11.580;2023-05-25T08:43:49;101872.25;;;27.06;73.31
35806;BME280;21925;44.608;11.580;2023-05-25T08:46:28;101821.81;;;26.73;73.77
35806;BME280;21925;44.608;11.580;2023-05-25T08:49:08;101842.66;;;26.75;73.38
35806;BME280;21925;44.608;11.580;2023-05-25T08:51:51;101889.75;;;26.94;72.37
35806;BME280;21925;44.608;11.580;2023-05-25T08:54:23;101880.44;;;27.20;71.59
35806;BME280;21925;44.608;11.580;2023-05-25T08:56:59;101865.09;;;27.02;72.16
35806;BME280;21925;44.608;11.580;2023-05-25T09:00:22;101895.16;;;27.47;72.11
35806;BME280;21925;44.608;11.580;2023-05-25T09:04:56;101798.69;;;26.85;72.58
35806;BME280;21925;44.608;11.580;2023-05-25T09:07:24;101860.84;;;27.71;72.00
35806;BME280;21925;44.608;11.580;2023-05-25T09:09:51;101833.66;;;28.13;71.16
35806;BME280;21925;44.608;11.580;2023-05-25T09:12:19;101867.47;;;28.92;68.41
35806;BME280;21925;44.608;11.580;2023-05-25T09:14:46;101891.69;;;28.61;68.34
35806;BME280;21925;44.608;11.580;2023-05-25T09:17:14;101892.38;;;28.18;67.64
35806;BME280;21925;44.608;11.580;2023-05-25T09:19:41;101785.25;;;27.47;69.13
35806;BME280;21925;44.608;11.580;2023-05-25T09:22:08;101815.00;;;27.32;70.18
35806;BME280;21925;44.608;11.580;2023-05-25T09:24:37;101835.91;;;27.70;73.17
35806;BME280;21925;44.608;11.580;2023-05-25T09:27:10;101904.22;;;28.44;70.04
35806;BME280;21925;44.608;11.580;2023-05-25T09:29:37;101820.44;;;28.57;71.07
35806;BME280;21925;44.608;11.580;2023-05-25T09:32:04;101902.88;;;28.65;69.01
35806;BME280;21925;44.608;11.580;2023-05-25T09:34:31;101895.22;;;28.49;70.16
35806;BME280;21925;44.608;11.580;2023-05-25T09:37:03;101902.75;;;29.00;69.48
35806;BME280;21925;44.608;11.580;2023-05-25T09:39:35;101907.00;;;28.92;68.07
35806;BME280;21925;44.608;11.580;2023-05-25T09:42:02;101914.47;;;29.14;69.24
35806;BME280;21925;44.608;11.580;2023-05-25T09:44:28;101874.94;;;28.54;67.36
35806;BME280;21925;44.608;11.580;2023-05-25T09:46:55;101875.88;;;28.80;68.60
35806;BME280;21925;44.608;11.580;2023-05-25T09:49:21;101918.22;;;29.24;68.31
35806;BME280;21925;44.608;11.580;2023-05-25T09:51:48;101894.53;;;29.34;65.86
35806;BME280;21925;44.608;11.580;2023-05-25T09:54:14;101884.97;;;29.44;63.55
35806;BME280;21925;44.608;11.580;2023-05-25T09:56:44;101912.66;;;29.90;64.13
35806;BME280;21925;44.608;11.580;2023-05-25T09:59:13;101884.47;;;29.33;64.17
35806;BME280;21925;44.608;11.580;2023-05-25T10:01:40;101898.91;;;28.62;64.33
35806;BME280;21925;44.608;11.580;2023-05-25T10:04:09;101870.56;;;28.98;66.34
35806;BME280;21925;44.608;11.580;2023-05-25T10:06:37;101884.53;;;29.45;64.53
35806;BME280;21925;44.608;11.580;2023-05-25T10:09:05;101888.81;;;28.93;64.75
35806;BME280;21925;44.608;11.580;2023-05-25T10:11:33;101917.25;;;28.86;65.25
35806;BME280;21925;44.608;11.580;2023-05-25T10:14:06;101847.03;;;28.72;65.29
35806;BME280;21925;44.608;11.580;2023-05-25T10:16:33;101852.91;;;29.22;65.97
35806;BME280;21925;44.608;11.580;2023-05-25T10:19:05;101914.69;;;29.36;64.94
35806;BME280;21925;44.608;11.580;2023-05-25T10:21:35;101913.16;;;29.03;64.54
35806;BME280;21925;44.608;11.580;2023-05-25T10:24:11;101893.16;;;29.67;63.32
35806;BME280;21925;44.608;11.580;2023-05-25T10:26:42;101925.91;;;30.79;63.75
35806;BME280;21925;44.608;11.580;2023-05-25T10:29:11;101876.72;;;30.74;62.81
35806;BME280;21925;44.608;11.580;2023-05-25T10:31:41;101882.34;;;30.86;62.43
35806;BME280;21925;44.608;11.580;2023-05-25T10:34:07;101920.63;;;31.03;63.42
35806;BME280;21925;44.608;11.580;2023-05-25T10:36:35;101900.34;;;30.58;63.11
35806;BME280;21925;44.608;11.580;2023-05-25T10:39:04;101907.91;;;31.07;61.22
35806;BME280;21925;44.608;11.580;2023-05-25T10:41:35;101910.84;;;31.38;60.38
35806;BME280;21925;44.608;11.580;2023-05-25T10:44:01;101912.78;;;31.92;60.24
35806;BME280;21925;44.608;11.580;2023-05-25T10:46:28;101902.59;;;31.52;58.37
35806;BME280;21925;44.608;11.580;2023-05-25T10:48:54;101910.78;;;31.29;59.45
35806;BME280;21925;44.608;11.580;2023-05-25T10:51:56;101912.50;;;31.69;59.78
35806;BME280;21925;44.608;11.580;2023-05-25T10:54:22;101917.09;;;31.75;58.95
35806;BME280;21925;44.608;11.580;2023-05-25T10:57:17;101904.09;;;32.17;57.41
35806;BME280;21925;44.608;11.580;2023-05-25T10:59:47;101899.88;;;32.70;60.01
35806;BME280;21925;44.608;11.580;2023-05-25T11:02:14;101887.75;;;32.39;58.55
35806;BME280;21925;44.608;11.580;2023-05-25T11:04:40;101896.41;;;31.45;58.21
35806;BME280;21925;44.608;11.580;2023-05-25T11:07:08;101903.50;;;30.94;61.12
35806;BME280;21925;44.608;11.580;2023-05-25T11:09:43;101898.06;;;30.99;58.21
35806;BME280;21925;44.608;11.580;2023-05-25T11:12:21;101877.44;;;30.65;58.97
35806;BME280;21925;44.608;11.580;2023-05-25T11:15:10;101889.94;;;31.23;58.71
35806;BME280;21925;44.608;11.580;2023-05-25T11:17:44;101886.63;;;31.03;58.94
35806;BME280;21925;44.608;11.580;2023-05-25T11:20:20;101888.53;;;30.72;58.58
35806;BME280;21925;44.608;11.580;2023-05-25T11:22:49;101892.78;;;30.89;61.63
35806;BME280;21925;44.608;11.580;2023-05-25T11:25:40;101894.69;;;30.33;60.05
35806;BME280;21925;44.608;11.580;2023-05-25T11:28:08;101898.09;;;30.28;60.05
35806;BME280;21925;44.608;11.580;2023-05-25T11:30:38;101898.44;;;30.18;60.89
35806;BME280;21925;44.608;11.580;2023-05-25T11:33:05;101878.59;;;30.30;60.01
35806;BME280;21925;44.608;11.580;2023-05-25T11:35:32;101883.97;;;30.28;61.22
35806;BME280;21925;44.608;11.580;2023-05-25T11:38:06;101872.97;;;29.93;62.29
35806;BME280;21925;44.608;11.580;2023-05-25T11:40:33;101875.91;;;30.02;62.00
35806;BME280;21925;44.608;11.580;2023-05-25T11:42:59;101848.38;;;30.40;61.70
35806;BME280;21925;44.608;11.580;2023-05-25T11:45:33;101865.34;;;31.20;61.45
35806;BME280;21925;44.608;11.580;2023-05-25T11:47:59;101862.09;;;31.73;60.58
35806;BME280;21925;44.608;11.580;2023-05-25T11:50:25;101859.75;;;32.11;60.00
35806;BME280;21925;44.608;11.580;2023-05-25T11:52:52;101832.28;;;32.47;58.62
35806;BME280;21925;44.608;11.580;2023-05-25T11:55:18;101859.53;;;31.96;57.34
35806;BME280;21925;44.608;11.580;2023-05-25T11:57:44;101855.97;;;32.89;57.42
35806;BME280;21925;44.608;11.580;2023-05-25T12:00:10;101850.16;;;33.10;56.52
35806;BME280;21925;44.608;11.580;2023-05-25T12:02:41;101843.22;;;32.66;56.75
35806;BME280;21925;44.608;11.580;2023-05-25T12:05:08;101847.03;;;32.33;57.17
35806;BME280;21925;44.608;11.580;2023-05-25T12:07:34;101828.75;;;31.95;57.26
35806;BME280;21925;44.608;11.580;2023-05-25T12:10:07;101829.25;;;31.93;59.66
35806;BME280;21925;44.608;11.580;2023-05-25T12:12:51;101822.25;;;31.25;57.87
35806;BME280;21925;44.608;11.580;2023-05-25T12:15:23;101821.25;;;31.19;58.43
35806;BME280;21925;44.608;11.580;2023-05-25T12:17:50;101841.94;;;32.85;59.45
35806;BME280;21925;44.608;11.580;2023-05-25T12:20:16;101833.41;;;32.67;55.43
35806;BME280;21925;44.608;11.580;2023-05-25T12:22:44;101796.00;;;32.60;56.95
35806;BME280;21925;44.608;11.580;2023-05-25T12:25:11;101822.31;;;32.43;56.70
35806;BME280;21925;44.608;11.580;2023-05-25T12:27:37;101826.91;;;33.29;55.91
35806;BME280;21925;44.608;11.580;2023-05-25T12:30:07;101827.06;;;33.85;54.68
35806;BME280;21925;44.608;11.580;2023-05-25T12:32:34;101825.94;;;33.50;54.71
35806;BME280;21925;44.608;11.580;2023-05-25T12:35:04;101828.84;;;33.15;54.80
35806;BME280;21925;44.608;11.580;2023-05-25T12:37:31;101831.31;;;33.39;54.03
35806;BME280;21925;44.608;11.580;2023-05-25T12:39:58;101825.28;;;33.64;55.30
35806;BME280;21925;44.608;11.580;2023-05-25T12:42:24;101819.53;;;34.14;52.98
35806;BME280;21925;44.608;11.580;2023-05-25T12:44:54;101825.06;;;33.77;54.85